X  Close Metar Aviation Weather Data     NZCH Christchurch International Airport
Temperature
6°C Temperature
5°C Dewpoint
93% Humidity



Wind
8 KM/H
5 MPH
2 M/S
4 KTS



40°
NE
Current Conditions

Clear Clear
Pressure 1008.92 (hPa) - 29.79 (inHg)
Visibility 6.2 (mile) - 10 (km)
Airport
Airport-code NZCH

Location: Christchurch International Airport
Distance: 14 (km)

Metar:
NZCH 251830Z AUTO 04004KT 010V070 9999 NCD 06/05 Q1009 NOSIG

Time: 26-09-2020 6:30 am NZST